createdAt,value
2023-01-18T00:00:29.000Z,7.8
2023-01-18T00:01:48.166Z,7.7
2023-01-18T00:03:02.000Z,8.3
2023-01-18T00:04:18.000Z,7.7
2023-01-18T00:05:36.754Z,7.8
2023-01-18T00:06:51.967Z,7.6
2023-01-18T00:08:08.163Z,7.8
2023-01-18T00:09:24.622Z,7.6
2023-01-18T00:10:40.556Z,8.5
2023-01-18T00:11:54.000Z,7.8
2023-01-18T00:13:10.000Z,8
2023-01-18T00:14:29.145Z,8.4
2023-01-18T00:15:43.000Z,8.1
2023-01-18T00:17:01.537Z,7.3
2023-01-18T00:18:17.733Z,7.9
2023-01-18T00:19:31.000Z,8.6
2023-01-18T00:20:50.126Z,8.4
2023-01-18T00:22:06.322Z,8.7
2023-01-18T00:23:21.534Z,8
2023-01-18T00:24:35.000Z,8.5
2023-01-18T00:25:53.927Z,8.1
2023-01-18T00:27:10.123Z,8.5
2023-01-18T00:28:26.562Z,8
2023-01-18T00:29:42.516Z,7.8
2023-01-18T00:30:58.712Z,7.1
2023-01-18T00:32:14.909Z,7.6
2023-01-18T00:33:28.000Z,7.9
2023-01-18T00:34:45.000Z,8.2
2023-01-18T00:36:01.000Z,7.4
2023-01-18T00:37:19.693Z,7.9
2023-01-18T00:38:35.889Z,7.2
2023-01-18T00:39:51.102Z,8.1
2023-01-18T00:41:07.551Z,7.7
2023-01-18T00:42:23.495Z,7.7
2023-01-18T00:43:39.690Z,7.9
2023-01-18T00:44:53.000Z,8
2023-01-18T00:46:09.000Z,7.5
2023-01-18T00:47:25.000Z,8.6
2023-01-18T00:48:42.000Z,7.9
2023-01-18T00:50:00.672Z,7.6
2023-01-18T00:51:14.000Z,7.7
2023-01-18T00:52:30.000Z,7.4
2023-01-18T00:53:46.000Z,7.8
2023-01-18T00:55:03.000Z,7.9
2023-01-18T00:55:11.000Z,7.9
2023-01-18T00:56:20.917Z,7.3
2023-01-18T00:57:34.000Z,8.1
2023-01-18T00:58:53.061Z,7.8
2023-01-18T01:01:23.000Z,8.2
2023-01-18T01:01:32.000Z,8.3
2023-01-18T01:02:41.896Z,7.8
2023-01-18T01:03:55.000Z,8.2
2023-01-18T01:05:14.043Z,7.7
2023-01-18T01:07:46.436Z,7.7
2023-01-18T01:09:00.000Z,7.9
2023-01-18T01:10:16.000Z,8.2
2023-01-18T01:11:35.024Z,7.9
2023-01-18T01:12:50.481Z,8.2
2023-01-18T01:14:04.000Z,8.4
2023-01-18T01:15:22.630Z,8.2
2023-01-18T01:16:36.000Z,8.2
2023-01-18T01:17:55.022Z,8.7
2023-01-18T01:19:11.462Z,8.3
2023-01-18T01:20:25.000Z,8.1
2023-01-18T01:21:41.000Z,8.5
2023-01-18T01:22:59.808Z,8.6
2023-01-18T01:24:16.003Z,8.9
2023-01-18T01:25:32.200Z,8.7
2023-01-18T01:26:46.000Z,8.8
2023-01-18T01:28:02.000Z,8.7
2023-01-18T01:29:17.000Z,8.1
2023-01-18T01:30:36.002Z,8.1
2023-01-18T01:31:52.446Z,8.4
2023-01-18T01:33:08.634Z,8.3
2023-01-18T01:34:24.835Z,8.6
2023-01-18T01:35:41.032Z,8.6
2023-01-18T01:36:56.983Z,8.5
2023-01-18T01:38:10.000Z,9.2
2023-01-18T01:39:29.618Z,8.8
2023-01-18T01:40:43.000Z,8.4
2023-01-18T01:42:01.768Z,8.8
2023-01-18T01:43:17.964Z,8.7
2023-01-18T01:44:31.000Z,8
2023-01-18T01:45:49.373Z,8.8
2023-01-18T01:47:03.000Z,8.3
2023-01-18T01:48:22.019Z,8.5
2023-01-18T01:49:35.000Z,9
2023-01-18T01:50:54.158Z,9
2023-01-18T01:52:10.604Z,8.9
2023-01-18T01:52:16.000Z,9.1
2023-01-18T01:53:25.573Z,8.9
2023-01-18T01:53:32.000Z,10.1
2023-01-18T01:54:42.013Z,8.8
2023-01-18T01:55:55.000Z,8.9
2023-01-18T01:59:46.557Z,9
2023-01-18T02:01:02.754Z,9.5
2023-01-18T02:02:19.200Z,9
2023-01-18T02:03:35.147Z,8.8
2023-01-18T02:04:51.591Z,9
2023-01-18T02:06:07.792Z,9.3
2023-01-18T02:07:23.737Z,8.8
2023-01-18T02:08:37.000Z,8.8
2023-01-18T02:09:55.394Z,9.1
2023-01-18T02:11:09.000Z,8.4
2023-01-18T02:12:25.000Z,9.3
2023-01-18T02:13:41.000Z,8.7
2023-01-18T02:14:59.932Z,9
2023-01-18T02:16:16.128Z,9.6
2023-01-18T02:17:32.567Z,9.4
2023-01-18T02:18:48.765Z,9
2023-01-18T02:20:04.720Z,9.3
2023-01-18T02:21:18.000Z,9.7
2023-01-18T02:22:34.000Z,9.6
2023-01-18T02:23:53.309Z,9.1
2023-01-18T02:25:09.756Z,9
2023-01-18T02:26:24.967Z,8.8
2023-01-18T02:27:40.916Z,8.8
2023-01-18T02:28:54.000Z,9.2
2023-01-18T02:30:11.000Z,9.1
2023-01-18T02:31:29.506Z,8.6
2023-01-18T02:32:45.703Z,9.5
2023-01-18T02:34:02.142Z,9.7
2023-01-18T02:35:15.000Z,9.4
2023-01-18T02:36:34.540Z,9.3
2023-01-18T02:37:50.489Z,9.4
2023-01-18T02:39:06.687Z,8.9
2023-01-18T02:40:22.883Z,9.1
2023-01-18T02:41:39.326Z,9.3
2023-01-18T02:42:54.552Z,9
2023-01-18T02:44:08.000Z,9.7
2023-01-18T02:45:26.687Z,10.2
2023-01-18T02:46:40.000Z,10
2023-01-18T02:47:59.327Z,9.5
2023-01-18T02:49:15.276Z,9.8
2023-01-18T02:50:31.473Z,10.1
2023-01-18T02:51:45.000Z,9.2
2023-01-18T02:53:04.114Z,9.9
2023-01-18T02:54:20.062Z,10.5
2023-01-18T02:55:33.000Z,9.5
2023-01-18T02:56:52.705Z,9.9
2023-01-18T02:58:08.893Z,9.8
2023-01-18T02:59:23.864Z,9.8
2023-01-18T03:00:37.000Z,9.7
2023-01-18T03:01:53.000Z,9.3
2023-01-18T03:03:10.000Z,9.6
2023-01-18T03:04:28.894Z,9.8
2023-01-18T03:05:44.849Z,10.4
2023-01-18T03:07:01.297Z,9.7
2023-01-18T03:08:17.483Z,9.4
2023-01-18T03:09:33.438Z,9.5
2023-01-18T03:10:49.875Z,9.8
2023-01-18T03:12:06.071Z,10
2023-01-18T03:13:19.000Z,9.7
2023-01-18T03:14:38.470Z,9.5
2023-01-18T03:15:53.438Z,9.7
2023-01-18T03:17:09.635Z,10.4
2023-01-18T03:18:25.831Z,10.2
2023-01-18T03:19:39.000Z,10.1
2023-01-18T03:20:55.000Z,9.5
2023-01-18T03:22:14.420Z,9.5
2023-01-18T03:23:30.617Z,10.1
2023-01-18T03:24:46.814Z,9.7
2023-01-18T03:26:00.000Z,10.5
2023-01-18T03:27:19.456Z,9.8
2023-01-18T03:28:35.403Z,10
2023-01-18T03:29:51.855Z,10.3
2023-01-18T03:31:08.049Z,10.6
2023-01-18T03:32:23.010Z,10.2
2023-01-18T03:33:39.206Z,10.2
2023-01-18T03:34:55.644Z,10
2023-01-18T03:36:11.600Z,9.9
2023-01-18T03:37:28.048Z,10.8
2023-01-18T03:38:44.243Z,10.6
2023-01-18T03:40:00.189Z,10.4
2023-01-18T03:41:16.385Z,10.5
2023-01-18T03:42:30.000Z,10.1
2023-01-18T03:43:48.777Z,10
2023-01-18T03:45:02.000Z,10.2
2023-01-18T03:46:18.000Z,10.4
2023-01-18T03:47:37.368Z,10.6
2023-01-18T03:48:50.000Z,10
2023-01-18T03:50:09.034Z,9.8
2023-01-18T03:51:22.000Z,10.8
2023-01-18T03:52:41.425Z,9.3
2023-01-18T03:53:57.367Z,10.2
2023-01-18T03:55:13.563Z,10.2
2023-01-18T03:56:29.760Z,10.3
2023-01-18T03:57:46.211Z,10
2023-01-18T03:59:02.153Z,10
2023-01-18T04:00:18.594Z,10.2
2023-01-18T04:01:34.795Z,10.1
2023-01-18T04:02:50.742Z,10.1
2023-01-18T04:04:07.181Z,10.7
2023-01-18T04:05:22.397Z,10.5
2023-01-18T04:06:38.348Z,11
2023-01-18T04:07:54.545Z,10.6
2023-01-18T04:09:08.000Z,10.7
2023-01-18T04:10:26.939Z,10.4
2023-01-18T04:10:33.000Z,11.7
2023-01-18T04:11:40.000Z,11.2
2023-01-18T04:12:59.584Z,11
2023-01-18T04:14:15.776Z,11.8
2023-01-18T04:16:45.000Z,11.5
2023-01-18T04:18:04.119Z,11.4
2023-01-18T04:19:20.313Z,10.8
2023-01-18T04:20:36.507Z,10.6
2023-01-18T04:21:51.717Z,11.6
2023-01-18T04:23:05.000Z,10.9
2023-01-18T04:24:24.353Z,11.4
2023-01-18T04:25:40.301Z,12.2
2023-01-18T04:26:56.742Z,11.1
2023-01-18T04:28:10.000Z,11.9
2023-01-18T04:29:26.000Z,11.6
2023-01-18T04:30:45.078Z,12.6
2023-01-18T04:32:03.522Z,11.9
2023-01-18T04:33:17.467Z,11.7
2023-01-18T04:34:33.661Z,13.2
2023-01-18T04:35:47.000Z,12.7
2023-01-18T04:37:03.000Z,11.9
2023-01-18T04:38:21.506Z,12.5
2023-01-18T04:39:35.000Z,12
2023-01-18T04:40:51.000Z,12.2
2023-01-18T04:42:07.000Z,12
2023-01-18T04:43:23.000Z,11.8
2023-01-18T04:43:32.000Z,11.5
2023-01-18T04:44:42.233Z,11.4
2023-01-18T04:45:58.671Z,11.3
2023-01-18T04:47:14.867Z,11.2
2023-01-18T04:49:44.000Z,11.1
2023-01-18T04:49:52.000Z,11.5
2023-01-18T04:51:03.449Z,11.9
2023-01-18T04:52:19.400Z,11.3
2023-01-18T04:53:35.838Z,11.8
2023-01-18T04:56:06.999Z,12.1
2023-01-18T04:57:20.000Z,11
2023-01-18T04:58:39.388Z,11.9
2023-01-18T04:59:55.582Z,11.9
2023-01-18T05:01:09.000Z,12.8
2023-01-18T05:02:25.000Z,12.8
2023-01-18T05:03:44.165Z,12
2023-01-18T05:04:58.000Z,12.7
2023-01-18T05:06:16.806Z,13.2
2023-01-18T05:07:30.000Z,12.7
2023-01-18T05:08:46.000Z,12.1
2023-01-18T05:10:05.380Z,12.6
2023-01-18T05:11:20.347Z,11.9
2023-01-18T05:12:36.786Z,12.2
2023-01-18T05:13:50.000Z,11.8
2023-01-18T05:15:08.931Z,12.1
2023-01-18T05:16:22.000Z,11.8
2023-01-18T05:17:41.559Z,12.4
2023-01-18T05:18:57.513Z,12.3
2023-01-18T05:20:13.968Z,12.2
2023-01-18T05:21:27.000Z,12.9
2023-01-18T05:22:43.000Z,13
2023-01-18T05:24:00.000Z,13.7
2023-01-18T05:25:18.486Z,12.5
2023-01-18T05:26:34.935Z,12.6
2023-01-18T05:27:49.891Z,12.6
2023-01-18T05:29:03.000Z,12.5
2023-01-18T05:30:19.000Z,12.7
2023-01-18T05:31:38.474Z,12.1
2023-01-18T05:32:52.000Z,12.5
2023-01-18T05:34:10.863Z,12.3
2023-01-18T05:35:27.057Z,11.9
2023-01-18T05:36:40.000Z,13.3
2023-01-18T05:37:59.446Z,12
2023-01-18T05:39:13.000Z,11.9
2023-01-18T05:40:32.078Z,12.4
2023-01-18T05:41:48.029Z,11.9
2023-01-18T05:43:04.464Z,12.3
2023-01-18T05:44:19.680Z,12.2
2023-01-18T05:45:33.000Z,12.6
2023-01-18T05:46:51.823Z,12
2023-01-18T05:48:08.017Z,13
2023-01-18T05:49:24.212Z,12.6
2023-01-18T05:50:40.406Z,12.3
2023-01-18T05:51:54.000Z,12.4
2023-01-18T05:53:10.000Z,12.5
2023-01-18T05:54:28.989Z,13
2023-01-18T05:55:42.000Z,13.3
2023-01-18T05:57:01.378Z,13.1
2023-01-18T05:58:17.825Z,12.8
2023-01-18T05:59:34.012Z,12.5
2023-01-18T06:00:48.977Z,12.8
2023-01-18T06:02:05.419Z,13.4
2023-01-18T06:03:19.000Z,12.7
2023-01-18T06:04:37.561Z,12.8
2023-01-18T06:05:51.000Z,12.9
2023-01-18T06:07:09.950Z,13
2023-01-18T06:08:22.000Z,13.3
2023-01-18T06:09:39.000Z,12.3
2023-01-18T06:10:55.000Z,12.6
2023-01-18T06:12:11.000Z,12.5
2023-01-18T06:13:27.000Z,13.1
2023-01-18T06:14:46.138Z,13.4
2023-01-18T06:16:00.000Z,13.5
2023-01-18T06:17:18.773Z,13.6
2023-01-18T06:18:34.965Z,14
2023-01-18T06:19:48.000Z,13.8
2023-01-18T06:21:04.000Z,12.5
2023-01-18T06:22:23.305Z,13.2
2023-01-18T06:23:37.000Z,13.9
2023-01-18T06:24:54.710Z,13.7
2023-01-18T06:26:11.145Z,13.8
2023-01-18T06:27:27.098Z,14.3
2023-01-18T06:28:41.000Z,14.2
2023-01-18T06:29:59.487Z,15.1
2023-01-18T06:31:15.929Z,15
2023-01-18T06:32:32.123Z,14.6
2023-01-18T06:33:45.000Z,14.9
2023-01-18T06:35:04.264Z,14.3
2023-01-18T06:36:20.706Z,14.6
2023-01-18T06:37:34.000Z,14.3
2023-01-18T06:38:52.847Z,14.3
2023-01-18T06:40:09.287Z,14.2
2023-01-18T06:41:24.252Z,15.8
2023-01-18T06:42:38.000Z,14.2
2023-01-18T06:43:56.883Z,14.8
2023-01-18T06:44:03.000Z,15.3
2023-01-18T06:45:13.082Z,14.3
2023-01-18T06:46:26.000Z,14.1
2023-01-18T06:47:42.000Z,14.6
2023-01-18T06:50:17.612Z,14.8
2023-01-18T06:51:33.806Z,14.8
2023-01-18T06:52:47.000Z,14.5
2023-01-18T06:54:06.196Z,15.1
2023-01-18T06:55:22.390Z,14.2
2023-01-18T06:56:38.823Z,14.4
2023-01-18T06:57:51.000Z,14.9
2023-01-18T06:59:07.000Z,15.5
2023-01-18T07:00:26.183Z,14.4
2023-01-18T07:01:42.378Z,14.9
2023-01-18T07:02:58.816Z,15
2023-01-18T07:04:12.000Z,14.8
2023-01-18T07:05:30.960Z,15.1
2023-01-18T07:06:47.400Z,15.3
2023-01-18T07:08:03.592Z,14.2
2023-01-18T07:09:17.000Z,14.8
2023-01-18T07:10:33.000Z,15.7
2023-01-18T07:11:51.932Z,16
2023-01-18T07:13:08.126Z,15.5
2023-01-18T07:14:21.000Z,15
2023-01-18T07:15:39.781Z,14.3
2023-01-18T07:16:55.727Z,14
2023-01-18T07:18:09.000Z,15.5
2023-01-18T07:19:28.116Z,14.4
2023-01-18T07:20:44.310Z,15.4
2023-01-18T07:22:00.752Z,14.1
2023-01-18T07:23:16.945Z,15.1
2023-01-18T07:24:30.000Z,15.5
2023-01-18T07:25:49.335Z,15
2023-01-18T07:27:02.000Z,14.9
2023-01-18T07:28:21.477Z,15.4
2023-01-18T07:29:37.918Z,15.7
2023-01-18T07:30:52.882Z,16.4
2023-01-18T07:32:09.076Z,16.6
2023-01-18T07:33:22.000Z,16.2
2023-01-18T07:34:39.000Z,15.4
2023-01-18T07:35:55.000Z,16.5
2023-01-18T07:37:11.000Z,16.7
2023-01-18T07:38:30.047Z,16.9
2023-01-18T07:39:43.000Z,17
2023-01-18T07:41:02.684Z,16.8
2023-01-18T07:42:18.630Z,17.7
2023-01-18T07:43:34.824Z,17
2023-01-18T07:44:48.000Z,17.3
2023-01-18T07:46:07.468Z,16.9
2023-01-18T07:47:22.665Z,17.4
2023-01-18T07:48:38.871Z,16.8
2023-01-18T07:49:52.000Z,17.6
2023-01-18T07:51:11.008Z,16.6
2023-01-18T07:52:27.202Z,16.4
2023-01-18T07:53:43.396Z,16.8
2023-01-18T07:54:59.591Z,16.9
2023-01-18T07:56:15.785Z,17
2023-01-18T07:57:31.979Z,17
2023-01-18T07:58:45.000Z,16.7
2023-01-18T08:00:04.369Z,15.5
2023-01-18T08:01:18.000Z,15.5
2023-01-18T08:01:26.000Z,15
2023-01-18T08:02:36.999Z,15.3
2023-01-18T08:03:52.220Z,15.8
2023-01-18T08:05:05.000Z,16.6
2023-01-18T08:07:40.551Z,16.2
2023-01-18T08:08:56.745Z,15.9
2023-01-18T08:10:10.000Z,16.2
2023-01-18T08:11:26.000Z,16.2
2023-01-18T08:12:43.000Z,15.6
2023-01-18T08:13:59.000Z,15.7
2023-01-18T08:15:15.000Z,17.1
2023-01-18T08:16:31.000Z,16.6
2023-01-18T08:17:47.000Z,15.4
2023-01-18T08:19:06.545Z,15.5
2023-01-18T08:20:21.509Z,16.5
2023-01-18T08:20:28.000Z,15.1
2023-01-18T08:21:37.705Z,14.9
2023-01-18T08:22:53.900Z,15.8
2023-01-18T08:24:10.337Z,15.5
2023-01-18T08:26:40.000Z,15.4
2023-01-18T08:27:58.922Z,16.3
2023-01-18T08:29:12.000Z,15.2
2023-01-18T08:30:28.000Z,15.3
2023-01-18T08:31:47.507Z,15.6
2023-01-18T08:33:03.455Z,14.8
2023-01-18T08:34:19.889Z,15.7
2023-01-18T08:35:35.843Z,15.2
2023-01-18T08:36:51.054Z,15.4
2023-01-18T08:38:04.000Z,14.1
2023-01-18T08:39:23.687Z,14.7
2023-01-18T08:40:37.000Z,14.3
2023-01-18T08:41:53.000Z,14.4
2023-01-18T08:43:09.000Z,15.5
2023-01-18T08:44:28.219Z,15
2023-01-18T08:45:44.414Z,14.7
2023-01-18T08:46:58.000Z,15
2023-01-18T08:48:17.046Z,14.8
2023-01-18T08:49:33.239Z,14.9
2023-01-18T08:50:49.191Z,14.7
2023-01-18T08:52:05.635Z,15.2
2023-01-18T08:53:20.595Z,14.9
2023-01-18T08:54:36.790Z,14.6
2023-01-18T08:55:50.000Z,14.5
2023-01-18T08:57:06.000Z,14.1
2023-01-18T08:58:25.373Z,14.6
2023-01-18T08:59:41.568Z,14
2023-01-18T09:00:55.000Z,13.5
2023-01-18T09:02:13.956Z,13.6
2023-01-18T09:03:27.000Z,14.3
2023-01-18T09:04:44.000Z,15
2023-01-18T09:06:02.785Z,14
2023-01-18T09:07:18.734Z,13.2
2023-01-18T09:08:35.178Z,13.6
2023-01-18T09:09:50.389Z,13.6
2023-01-18T09:11:06.332Z,13.6
2023-01-18T09:12:20.000Z,13.5
2023-01-18T09:13:38.970Z,13.4
2023-01-18T09:14:54.914Z,13.6
2023-01-18T09:16:11.358Z,13.7
2023-01-18T09:17:27.303Z,12.9
2023-01-18T09:18:41.000Z,12.6
2023-01-18T09:19:59.939Z,12.7
2023-01-18T09:21:16.131Z,12.8
2023-01-18T09:22:29.000Z,12.5
2023-01-18T09:23:48.273Z,12.7
2023-01-18T09:25:04.709Z,12.2
2023-01-18T09:26:17.000Z,12.2
2023-01-18T09:27:33.000Z,12.5
2023-01-18T09:28:52.066Z,12.1
2023-01-18T09:30:05.000Z,12.3
2023-01-18T09:31:24.454Z,11.6
2023-01-18T09:32:40.648Z,11.4
2023-01-18T09:33:57.085Z,11.4
2023-01-18T09:35:10.000Z,11.6
2023-01-18T09:36:29.230Z,12
2023-01-18T09:37:43.000Z,10.8
2023-01-18T09:39:01.619Z,10.5
2023-01-18T09:40:18.060Z,10.8
2023-01-18T09:41:31.000Z,11.3
2023-01-18T09:42:49.461Z,11.2
2023-01-18T09:44:05.411Z,11.4
2023-01-18T09:45:21.605Z,10.9
2023-01-18T09:46:35.000Z,10.6
2023-01-18T09:47:54.250Z,10.5
2023-01-18T09:49:10.187Z,10.7
2023-01-18T09:50:24.000Z,11.2
2023-01-18T09:51:42.575Z,11.2
2023-01-18T09:52:58.769Z,10.9
2023-01-18T09:54:12.000Z,10.9
2023-01-18T09:55:31.157Z,10.7
2023-01-18T09:56:45.000Z,11
2023-01-18T09:58:01.000Z,10.7
2023-01-18T09:59:16.000Z,10.3
2023-01-18T10:00:32.000Z,10.1
2023-01-18T10:01:51.145Z,10.4
2023-01-18T10:03:07.339Z,9.7
2023-01-18T10:04:23.533Z,9.3
2023-01-18T10:05:37.000Z,9
2023-01-18T10:06:53.000Z,8.8
2023-01-18T10:08:12.114Z,7.5
2023-01-18T10:09:28.309Z,6.9
2023-01-18T10:10:44.503Z,7.5
2023-01-18T10:12:00.697Z,7.3
2023-01-18T10:13:16.891Z,7.1
2023-01-18T10:14:33.085Z,7.4
2023-01-18T10:15:48.296Z,7.3
2023-01-18T10:17:04.489Z,7.1
2023-01-18T10:18:20.683Z,6.6
2023-01-18T10:19:36.877Z,7.3
2023-01-18T10:20:53.315Z,7.3
2023-01-18T10:22:09.265Z,7.4
2023-01-18T10:23:24.481Z,7.1
2023-01-18T10:24:38.000Z,7.5
2023-01-18T10:25:56.869Z,7.1
2023-01-18T10:27:10.000Z,6.9
2023-01-18T10:28:26.000Z,7.7
2023-01-18T10:29:45.702Z,7.4
2023-01-18T10:30:59.000Z,7.9
2023-01-18T10:32:15.000Z,7.6
2023-01-18T10:32:24.000Z,7.5
2023-01-18T10:33:34.034Z,7.4
2023-01-18T10:34:47.000Z,7.8
2023-01-18T10:36:06.665Z,7.6
2023-01-18T10:38:39.052Z,7
2023-01-18T10:39:51.000Z,6.8
2023-01-18T10:41:10.214Z,6.9
2023-01-18T10:42:24.000Z,6.8
2023-01-18T10:43:40.000Z,6.7
2023-01-18T10:44:56.000Z,7
2023-01-18T10:46:12.000Z,6.8
2023-01-18T10:47:31.184Z,7.3
2023-01-18T10:48:47.378Z,6.7
2023-01-18T10:50:01.000Z,6.5
2023-01-18T10:51:17.000Z,7.1
2023-01-18T10:52:33.000Z,6.8
2023-01-18T10:53:49.000Z,6.9
2023-01-18T10:55:06.000Z,7
2023-01-18T10:56:23.559Z,6.6
2023-01-18T10:57:37.000Z,6.8
2023-01-18T10:58:53.000Z,6.6
2023-01-18T11:00:12.141Z,6.6
2023-01-18T11:01:26.000Z,6
2023-01-18T11:02:42.000Z,6
2023-01-18T11:04:00.971Z,6.5
2023-01-18T11:05:16.917Z,6.6
2023-01-18T11:06:33.111Z,6.2
2023-01-18T11:07:49.548Z,6.4
2023-01-18T11:09:05.499Z,6.3
2023-01-18T11:10:19.000Z,6.6
2023-01-18T11:11:38.136Z,6.1
2023-01-18T11:12:50.000Z,6
2023-01-18T11:14:09.539Z,6.2
2023-01-18T11:15:23.000Z,5.8
2023-01-18T11:16:41.925Z,6.3
2023-01-18T11:17:58.120Z,6.3
2023-01-18T11:19:14.069Z,6.2
2023-01-18T11:20:27.000Z,6
2023-01-18T11:21:46.706Z,6
2023-01-18T11:23:00.000Z,5.7
2023-01-18T11:24:16.000Z,6.2
2023-01-18T11:25:32.000Z,6
2023-01-18T11:26:51.475Z,6.3
2023-01-18T11:28:05.000Z,5.8
2023-01-18T11:29:20.000Z,6
2023-01-18T11:30:36.000Z,5.7
2023-01-18T11:31:55.025Z,5.7
2023-01-18T11:33:08.000Z,5.8
2023-01-18T11:34:27.674Z,5.7
2023-01-18T11:35:41.000Z,5.7
2023-01-18T11:36:57.000Z,5.7
2023-01-18T11:38:13.000Z,5.7
2023-01-18T11:39:29.000Z,5.4
2023-01-18T11:39:38.000Z,5.6
2023-01-18T11:40:46.000Z,5.8
2023-01-18T11:42:04.578Z,5.4
2023-01-18T11:43:21.020Z,5.7
2023-01-18T11:45:52.176Z,5.6
2023-01-18T11:47:08.370Z,5.8
2023-01-18T11:48:22.000Z,5.7
2023-01-18T11:48:31.000Z,5.3
2023-01-18T11:49:41.019Z,5.4
2023-01-18T11:50:54.000Z,5.8
2023-01-18T11:52:10.000Z,5.5
2023-01-18T11:54:43.000Z,4.7
2023-01-18T11:55:59.000Z,4.6
2023-01-18T11:57:17.921Z,4.1
2023-01-18T11:58:34.366Z,4.2
2023-01-18T11:59:48.000Z,4.7
2023-01-18T12:01:04.000Z,4.3
2023-01-18T12:02:19.000Z,3.8
2023-01-18T12:03:35.000Z,3.6
2023-01-18T12:04:54.353Z,3.7
2023-01-18T12:06:08.000Z,3.7
2023-01-18T12:07:26.742Z,3.4
2023-01-18T12:08:40.000Z,3.9
2023-01-18T12:09:56.000Z,3.6
2023-01-18T12:11:12.000Z,3.6
2023-01-18T12:12:31.515Z,3.8
2023-01-18T12:13:47.460Z,3.7
2023-01-18T12:15:03.654Z,3.6
2023-01-18T12:16:19.848Z,3.9
2023-01-18T12:17:36.042Z,3.7
2023-01-18T12:18:48.000Z,3.6
2023-01-18T12:20:07.446Z,3.4
2023-01-18T12:21:21.000Z,3.3
2023-01-18T12:22:39.834Z,3.8
2023-01-18T12:23:53.000Z,3.3
2023-01-18T12:25:09.000Z,3.8
2023-01-18T12:26:26.000Z,3.2
2023-01-18T12:27:44.610Z,3.7
2023-01-18T12:29:00.804Z,3.3
2023-01-18T12:30:16.998Z,3.1
2023-01-18T12:31:30.000Z,3
2023-01-18T12:32:47.000Z,3
2023-01-18T12:34:05.580Z,3.2
2023-01-18T12:35:21.044Z,3.1
2023-01-18T12:36:34.000Z,2.9
2023-01-18T12:37:53.426Z,2.5
2023-01-18T12:39:07.000Z,1.9
2023-01-18T12:40:25.812Z,2.2
2023-01-18T12:41:41.761Z,2
2023-01-18T12:42:58.204Z,2.1
2023-01-18T12:44:11.000Z,1.5
2023-01-18T12:45:28.000Z,1.8
2023-01-18T12:46:46.782Z,2.1
2023-01-18T12:48:00.000Z,2.1
2023-01-18T12:49:18.925Z,2
2023-01-18T12:50:35.119Z,2
2023-01-18T12:51:50.329Z,2.2
2023-01-18T12:53:06.763Z,2
2023-01-18T12:54:22.968Z,2.3
2023-01-18T12:55:39.151Z,2.1
2023-01-18T12:56:55.350Z,2.1
2023-01-18T12:58:11.299Z,2.1
2023-01-18T12:59:27.493Z,2.3
2023-01-18T13:00:43.687Z,2
2023-01-18T13:01:59.881Z,2.2
2023-01-18T13:03:13.000Z,2.5
2023-01-18T13:04:29.000Z,2.2
2023-01-18T13:05:48.463Z,2
2023-01-18T13:07:02.000Z,2.2
2023-01-18T13:08:17.000Z,2.3
2023-01-18T13:09:33.000Z,2.4
2023-01-18T13:10:49.000Z,2.4
2023-01-18T13:12:08.696Z,2.4
2023-01-18T13:13:24.643Z,2.2
2023-01-18T13:14:40.838Z,2.5
2023-01-18T13:15:57.277Z,2.4
2023-01-18T13:17:10.000Z,2.6
2023-01-18T13:18:27.000Z,2.4
2023-01-18T13:19:43.000Z,2.3
2023-01-18T13:21:02.055Z,2.4
2023-01-18T13:22:18.250Z,2.2
2023-01-18T13:23:34.196Z,2.4
2023-01-18T13:24:47.000Z,2.4
2023-01-18T13:26:05.600Z,2.3
2023-01-18T13:27:19.000Z,2.5
2023-01-18T13:28:37.989Z,2.5
2023-01-18T13:29:51.000Z,2.3
2023-01-18T13:31:08.000Z,2.4
2023-01-18T13:32:26.571Z,2.6
2023-01-18T13:33:40.000Z,2.3
2023-01-18T13:34:56.000Z,2.6
2023-01-18T13:36:15.399Z,3.3
2023-01-18T13:37:31.593Z,2.5
2023-01-18T13:38:45.000Z,2.6
2023-01-18T13:40:01.000Z,2.6
2023-01-18T13:41:16.000Z,2.7
2023-01-18T13:42:32.000Z,2.7
2023-01-18T13:43:51.603Z,2.8
2023-01-18T13:45:05.000Z,2.6
2023-01-18T13:46:21.000Z,2.9
2023-01-18T13:47:37.000Z,2.7
2023-01-18T13:48:56.109Z,2.7
2023-01-18T13:50:10.000Z,2.6
2023-01-18T13:51:28.748Z,2.5
2023-01-18T13:52:42.000Z,2.5
2023-01-18T13:54:01.129Z,2.8
2023-01-18T13:55:14.000Z,2.6
2023-01-18T13:56:33.280Z,3
2023-01-18T13:57:46.000Z,2.7
2023-01-18T13:59:04.687Z,2.6
2023-01-18T14:00:18.000Z,2.6
2023-01-18T14:01:37.320Z,2.9
2023-01-18T14:02:53.273Z,2.5
2023-01-18T14:04:09.468Z,2.1
2023-01-18T14:05:23.000Z,2.4
2023-01-18T14:06:41.858Z,2.1
2023-01-18T14:07:55.000Z,2.3
2023-01-18T14:09:11.000Z,2.3
2023-01-18T14:10:28.000Z,2.3
2023-01-18T14:11:46.639Z,2.1
2023-01-18T14:13:02.834Z,1.8
2023-01-18T14:14:18.292Z,2
2023-01-18T14:15:34.242Z,2
2023-01-18T14:16:50.438Z,2.2
2023-01-18T14:18:06.633Z,2.2
2023-01-18T14:19:20.000Z,1.8
2023-01-18T14:20:36.000Z,1.9
2023-01-18T14:21:55.461Z,1.8
2023-01-18T14:23:09.000Z,2.2
2023-01-18T14:24:27.613Z,2.1
2023-01-18T14:25:41.000Z,2.1
2023-01-18T14:27:00.005Z,2
2023-01-18T14:28:16.201Z,2.1
2023-01-18T14:29:32.646Z,1.9
2023-01-18T14:30:47.855Z,1.7
2023-01-18T14:32:04.046Z,2.1
2023-01-18T14:33:17.000Z,2.1
2023-01-18T14:34:33.000Z,2
2023-01-18T14:35:52.392Z,2.1
2023-01-18T14:37:08.588Z,2.2
2023-01-18T14:38:21.000Z,1.9
2023-01-18T14:39:40.001Z,1.9
2023-01-18T14:40:53.000Z,2
2023-01-18T14:42:12.393Z,1.7
2023-01-18T14:43:26.000Z,2
2023-01-18T14:44:45.028Z,2.1
2023-01-18T14:45:58.000Z,2.1
2023-01-18T14:47:14.000Z,2
2023-01-18T14:48:33.373Z,1.9
2023-01-18T14:49:49.569Z,1.6
2023-01-18T14:51:06.012Z,1.9
2023-01-18T14:52:21.961Z,2
2023-01-18T14:53:38.157Z,1.7
2023-01-18T14:54:54.601Z,1.9
2023-01-18T14:56:07.000Z,1.8
2023-01-18T14:57:25.761Z,1.8
2023-01-18T14:58:39.000Z,1.9
2023-01-18T14:59:58.404Z,1.6
2023-01-18T15:01:12.000Z,1.8
2023-01-18T15:02:28.000Z,1.7
2023-01-18T15:03:46.990Z,1.8
2023-01-18T15:05:03.212Z,2.1
2023-01-18T15:06:19.132Z,1.7
2023-01-18T15:07:35.329Z,1.6
2023-01-18T15:08:49.000Z,1.8
2023-01-18T15:10:07.972Z,1.9
2023-01-18T15:11:24.166Z,1.9
2023-01-18T15:12:39.375Z,1.9
2023-01-18T15:13:53.000Z,1.8
2023-01-18T15:15:11.520Z,1.9
2023-01-18T15:16:25.000Z,2
2023-01-18T15:17:44.152Z,1.7
2023-01-18T15:18:57.000Z,2.1
2023-01-18T15:20:16.546Z,2
2023-01-18T15:21:32.499Z,1.9
2023-01-18T15:22:48.940Z,2
2023-01-18T15:24:04.891Z,1.9
2023-01-18T15:24:10.000Z,2.3
2023-01-18T15:25:21.338Z,1.8
2023-01-18T15:26:34.000Z,2.2
2023-01-18T15:27:53.730Z,2.3
2023-01-18T15:30:25.141Z,2.3
2023-01-18T15:31:41.082Z,2
2023-01-18T15:32:54.000Z,2.2
2023-01-18T15:34:13.718Z,2.4
2023-01-18T15:35:29.670Z,2.5
2023-01-18T15:36:45.866Z,2.8
2023-01-18T15:38:02.306Z,3.1
2023-01-18T15:39:15.000Z,3.1
2023-01-18T15:40:34.705Z,2.7
2023-01-18T15:41:50.650Z,3
2023-01-18T15:43:06.846Z,3.1
2023-01-18T15:44:20.000Z,2.9
2023-01-18T15:45:38.254Z,3.2
2023-01-18T15:46:54.698Z,3.2
2023-01-18T15:47:00.000Z,3.2
2023-01-18T15:48:08.000Z,3.4
2023-01-18T15:49:26.841Z,3.1
2023-01-18T15:50:40.000Z,3.4
2023-01-18T15:53:15.694Z,3.4
2023-01-18T15:54:29.000Z,3.4
2023-01-18T15:55:45.000Z,3.3
2023-01-18T15:57:04.268Z,3.6
2023-01-18T15:58:17.000Z,3.5
2023-01-18T15:59:34.000Z,3.6
2023-01-18T16:00:52.854Z,3.4
2023-01-18T16:02:05.000Z,3.2
2023-01-18T16:03:21.000Z,3.5
2023-01-18T16:04:40.209Z,3.8
2023-01-18T16:05:56.405Z,4
2023-01-18T16:07:12.601Z,3.9
2023-01-18T16:08:29.040Z,3.8
2023-01-18T16:09:42.000Z,4.2
2023-01-18T16:10:58.000Z,4.2
2023-01-18T16:12:17.385Z,4
2023-01-18T16:13:33.581Z,3.7
2023-01-18T16:14:49.777Z,4.1
2023-01-18T16:16:06.225Z,4.2
2023-01-18T16:17:22.169Z,4
2023-01-18T16:18:35.000Z,4.2
2023-01-18T16:19:53.576Z,4.2
2023-01-18T16:21:10.022Z,3.9
2023-01-18T16:22:23.000Z,4.1
2023-01-18T16:23:42.422Z,3.6
2023-01-18T16:24:58.360Z,4.1
2023-01-18T16:26:14.804Z,4.1
2023-01-18T16:27:30.752Z,3.7
2023-01-18T16:28:44.000Z,4.2
2023-01-18T16:30:03.144Z,4
2023-01-18T16:31:19.340Z,4.1
2023-01-18T16:31:24.000Z,4.1
2023-01-18T16:32:33.000Z,4.2
2023-01-18T16:33:51.732Z,4.2
2023-01-18T16:35:06.943Z,4
2023-01-18T16:37:39.336Z,4
2023-01-18T16:38:55.775Z,4.3
2023-01-18T16:40:11.728Z,3.9
2023-01-18T16:40:18.000Z,4.9
2023-01-18T16:41:28.171Z,4.5
2023-01-18T16:42:41.000Z,4.3
2023-01-18T16:44:00.316Z,4.2
2023-01-18T16:46:32.708Z,4.5
2023-01-18T16:47:46.000Z,4.2
2023-01-18T16:49:05.359Z,5.1
2023-01-18T16:50:18.000Z,4.1
2023-01-18T16:51:36.508Z,4.4
2023-01-18T16:52:52.703Z,4.6
2023-01-18T16:54:09.145Z,4.4
2023-01-18T16:54:15.000Z,4.4
2023-01-18T16:55:22.000Z,4.9
2023-01-18T16:56:38.000Z,4.9
2023-01-18T16:57:55.000Z,4.2
2023-01-18T17:00:27.000Z,4.3
2023-01-18T17:01:46.320Z,4.6
2023-01-18T17:03:02.272Z,4.3
2023-01-18T17:04:18.719Z,3.7
2023-01-18T17:05:34.664Z,4
2023-01-18T17:06:48.000Z,3.9
2023-01-18T17:08:06.072Z,4.4
2023-01-18T17:09:22.269Z,4.3
2023-01-18T17:10:36.000Z,4.2
2023-01-18T17:11:54.661Z,4.3
2023-01-18T17:13:08.000Z,3.8
2023-01-18T17:14:27.053Z,4.1
2023-01-18T17:15:40.000Z,3.9
2023-01-18T17:16:57.000Z,4.1
2023-01-18T17:18:15.641Z,3.9
2023-01-18T17:19:29.000Z,3.9
2023-01-18T17:20:48.033Z,3.9
2023-01-18T17:22:01.000Z,4.1